sensor_id;sensor_type;location;lat;lon;timestamp;P1;durP1;ratioP1;P2;durP2;ratioP2
47866;SDS011;33628;50.806;11.586;2024-02-26T00:02:03;52.00;;;47.90;;
47866;SDS011;33628;50.806;11.586;2024-02-26T00:04:29;55.63;;;51.17;;
47866;SDS011;33628;50.806;11.586;2024-02-26T00:06:57;10.73;;;9.80;;
47866;SDS011;33628;50.806;11.586;2024-02-26T00:09:24;13.82;;;12.82;;
47866;SDS011;33628;50.806;11.586;2024-02-26T00:11:50;30.10;;;27.85;;
47866;SDS011;33628;50.806;11.586;2024-02-26T00:14:17;19.85;;;18.17;;
47866;SDS011;33628;50.806;11.586;2024-02-26T00:16:43;20.45;;;18.80;;
47866;SDS011;33628;50.806;11.586;2024-02-26T00:19:11;24.17;;;22.45;;
47866;SDS011;33628;50.806;11.586;2024-02-26T00:21:39;3.83;;;2.88;;
47866;SDS011;33628;50.806;11.586;2024-02-26T00:24:07;13.10;;;12.25;;
47866;SDS011;33628;50.806;11.586;2024-02-26T00:26:34;2.88;;;1.75;;
47866;SDS011;33628;50.806;11.586;2024-02-26T00:29:00;6.50;;;2.20;;
47866;SDS011;33628;50.806;11.586;2024-02-26T00:31:27;3.60;;;1.92;;
47866;SDS011;33628;50.806;11.586;2024-02-26T00:33:53;3.15;;;2.20;;
47866;SDS011;33628;50.806;11.586;2024-02-26T00:36:20;3.95;;;2.15;;
47866;SDS011;33628;50.806;11.586;2024-02-26T00:38:47;7.40;;;2.13;;
47866;SDS011;33628;50.806;11.586;2024-02-26T00:41:18;4.95;;;2.30;;
47866;SDS011;33628;50.806;11.586;2024-02-26T00:43:45;3.30;;;1.92;;
47866;SDS011;33628;50.806;11.586;2024-02-26T00:46:11;4.38;;;2.08;;
47866;SDS011;33628;50.806;11.586;2024-02-26T00:48:38;6.60;;;2.20;;
47866;SDS011;33628;50.806;11.586;2024-02-26T00:51:04;5.68;;;2.40;;
47866;SDS011;33628;50.806;11.586;2024-02-26T00:53:31;4.85;;;2.03;;
47866;SDS011;33628;50.806;11.586;2024-02-26T00:55:57;6.90;;;2.38;;
47866;SDS011;33628;50.806;11.586;2024-02-26T00:58:28;3.38;;;1.85;;
47866;SDS011;33628;50.806;11.586;2024-02-26T01:00:55;3.70;;;2.03;;
47866;SDS011;33628;50.806;11.586;2024-02-26T01:03:21;3.88;;;2.22;;
47866;SDS011;33628;50.806;11.586;2024-02-26T01:05:48;4.28;;;2.10;;
47866;SDS011;33628;50.806;11.586;2024-02-26T01:08:15;4.53;;;1.92;;
47866;SDS011;33628;50.806;11.586;2024-02-26T01:10:41;3.70;;;2.00;;
47866;SDS011;33628;50.806;11.586;2024-02-26T01:13:08;7.25;;;2.10;;
47866;SDS011;33628;50.806;11.586;2024-02-26T01:15:36;9.57;;;8.85;;
47866;SDS011;33628;50.806;11.586;2024-02-26T01:18:02;41.80;;;38.65;;
47866;SDS011;33628;50.806;11.586;2024-02-26T01:20:29;38.00;;;34.72;;
47866;SDS011;33628;50.806;11.586;2024-02-26T01:22:56;50.63;;;46.72;;
47866;SDS011;33628;50.806;11.586;2024-02-26T01:25:22;60.00;;;55.03;;
47866;SDS011;33628;50.806;11.586;2024-02-26T01:27:49;121.57;;;110.40;;
47866;SDS011;33628;50.806;11.586;2024-02-26T01:30:15;115.13;;;104.13;;
47866;SDS011;33628;50.806;11.586;2024-02-26T01:32:44;85.30;;;78.43;;
47866;SDS011;33628;50.806;11.586;2024-02-26T01:35:10;89.60;;;81.78;;
47866;SDS011;33628;50.806;11.586;2024-02-26T01:37:38;90.80;;;83.18;;
47866;SDS011;33628;50.806;11.586;2024-02-26T01:40:05;93.80;;;85.50;;
47866;SDS011;33628;50.806;11.586;2024-02-26T01:42:37;25.63;;;23.75;;
47866;SDS011;33628;50.806;11.586;2024-02-26T01:45:04;52.17;;;48.35;;
47866;SDS011;33628;50.806;11.586;2024-02-26T01:47:32;12.45;;;11.60;;
47866;SDS011;33628;50.806;11.586;2024-02-26T01:50:01;60.95;;;56.42;;
47866;SDS011;33628;50.806;11.586;2024-02-26T01:52:27;52.00;;;48.65;;
47866;SDS011;33628;50.806;11.586;2024-02-26T01:54:54;32.15;;;30.02;;
47866;SDS011;33628;50.806;11.586;2024-02-26T01:57:21;26.63;;;24.77;;
47866;SDS011;33628;50.806;11.586;2024-02-26T01:59:47;16.52;;;15.32;;
47866;SDS011;33628;50.806;11.586;2024-02-26T02:02:14;35.10;;;32.85;;
47866;SDS011;33628;50.806;11.586;2024-02-26T02:04:41;165.10;;;148.52;;
47866;SDS011;33628;50.806;11.586;2024-02-26T02:07:09;176.23;;;157.88;;
47866;SDS011;33628;50.806;11.586;2024-02-26T02:09:36;149.25;;;134.55;;
47866;SDS011;33628;50.806;11.586;2024-02-26T02:12:03;118.85;;;108.88;;
47866;SDS011;33628;50.806;11.586;2024-02-26T02:14:29;193.75;;;173.07;;
47866;SDS011;33628;50.806;11.586;2024-02-26T02:16:56;219.95;;;193.23;;
47866;SDS011;33628;50.806;11.586;2024-02-26T02:19:22;173.68;;;155.52;;
47866;SDS011;33628;50.806;11.586;2024-02-26T02:21:50;258.70;;;215.05;;
47866;SDS011;33628;50.806;11.586;2024-02-26T02:24:17;219.23;;;191.38;;
47866;SDS011;33628;50.806;11.586;2024-02-26T02:26:44;234.35;;;201.32;;
47866;SDS011;33628;50.806;11.586;2024-02-26T02:29:11;194.15;;;173.05;;
47866;SDS011;33628;50.806;11.586;2024-02-26T02:31:38;199.98;;;178.23;;
47866;SDS011;33628;50.806;11.586;2024-02-26T02:34:05;166.13;;;149.35;;
47866;SDS011;33628;50.806;11.586;2024-02-26T02:36:32;222.88;;;190.40;;
47866;SDS011;33628;50.806;11.586;2024-02-26T02:38:59;172.48;;;154.45;;
47866;SDS011;33628;50.806;11.586;2024-02-26T02:41:26;185.20;;;165.23;;
47866;SDS011;33628;50.806;11.586;2024-02-26T02:43:55;165.63;;;148.45;;
47866;SDS011;33628;50.806;11.586;2024-02-26T02:46:22;143.38;;;129.57;;
47866;SDS011;33628;50.806;11.586;2024-02-26T02:48:49;90.78;;;83.40;;
47866;SDS011;33628;50.806;11.586;2024-02-26T02:51:15;130.88;;;118.25;;
47866;SDS011;33628;50.806;11.586;2024-02-26T02:53:42;79.45;;;73.38;;
47866;SDS011;33628;50.806;11.586;2024-02-26T02:56:10;139.40;;;125.38;;
47866;SDS011;33628;50.806;11.586;2024-02-26T02:58:37;98.07;;;90.00;;
47866;SDS011;33628;50.806;11.586;2024-02-26T03:01:03;2.13;;;1.83;;
47866;SDS011;33628;50.806;11.586;2024-02-26T03:03:30;156.77;;;141.13;;
47866;SDS011;33628;50.806;11.586;2024-02-26T03:05:56;150.45;;;135.35;;
47866;SDS011;33628;50.806;11.586;2024-02-26T03:08:23;154.63;;;139.73;;
47866;SDS011;33628;50.806;11.586;2024-02-26T03:10:51;153.07;;;138.05;;
47866;SDS011;33628;50.806;11.586;2024-02-26T03:13:19;175.77;;;157.55;;
47866;SDS011;33628;50.806;11.586;2024-02-26T03:15:46;107.82;;;98.63;;
47866;SDS011;33628;50.806;11.586;2024-02-26T03:18:12;103.40;;;94.43;;
47866;SDS011;33628;50.806;11.586;2024-02-26T03:20:39;116.20;;;106.30;;
47866;SDS011;33628;50.806;11.586;2024-02-26T03:23:06;98.35;;;89.93;;
47866;SDS011;33628;50.806;11.586;2024-02-26T03:25:35;93.13;;;85.65;;
47866;SDS011;33628;50.806;11.586;2024-02-26T03:28:02;111.53;;;101.50;;
47866;SDS011;33628;50.806;11.586;2024-02-26T03:30:31;54.08;;;49.65;;
47866;SDS011;33628;50.806;11.586;2024-02-26T03:32:58;72.90;;;66.85;;
47866;SDS011;33628;50.806;11.586;2024-02-26T03:35:25;79.55;;;73.00;;
47866;SDS011;33628;50.806;11.586;2024-02-26T03:37:51;78.63;;;72.13;;
47866;SDS011;33628;50.806;11.586;2024-02-26T03:40:18;73.05;;;67.05;;
47866;SDS011;33628;50.806;11.586;2024-02-26T03:42:45;107.28;;;97.68;;
47866;SDS011;33628;50.806;11.586;2024-02-26T03:45:11;128.05;;;115.97;;
47866;SDS011;33628;50.806;11.586;2024-02-26T03:47:39;144.15;;;129.80;;
47866;SDS011;33628;50.806;11.586;2024-02-26T03:50:07;124.95;;;113.50;;
47866;SDS011;33628;50.806;11.586;2024-02-26T03:52:33;133.23;;;120.85;;
47866;SDS011;33628;50.806;11.586;2024-02-26T03:55:00;138.15;;;125.05;;
47866;SDS011;33628;50.806;11.586;2024-02-26T03:57:27;112.28;;;102.35;;
47866;SDS011;33628;50.806;11.586;2024-02-26T03:59:53;116.03;;;105.10;;
47866;SDS011;33628;50.806;11.586;2024-02-26T04:02:20;165.93;;;148.90;;
47866;SDS011;33628;50.806;11.586;2024-02-26T04:04:50;145.20;;;131.20;;
47866;SDS011;33628;50.806;11.586;2024-02-26T04:07:16;224.10;;;195.25;;
47866;SDS011;33628;50.806;11.586;2024-02-26T04:09:44;242.63;;;204.80;;
47866;SDS011;33628;50.806;11.586;2024-02-26T04:12:10;249.88;;;210.38;;
47866;SDS011;33628;50.806;11.586;2024-02-26T04:14:37;216.50;;;189.88;;
47866;SDS011;33628;50.806;11.586;2024-02-26T04:17:04;213.77;;;186.23;;
47866;SDS011;33628;50.806;11.586;2024-02-26T04:19:30;211.35;;;183.02;;
47866;SDS011;33628;50.806;11.586;2024-02-26T04:21:58;335.90;;;275.23;;
47866;SDS011;33628;50.806;11.586;2024-02-26T04:24:25;264.02;;;219.93;;
47866;SDS011;33628;50.806;11.586;2024-02-26T04:26:52;255.27;;;213.65;;
47866;SDS011;33628;50.806;11.586;2024-02-26T04:29:18;233.13;;;199.70;;
47866;SDS011;33628;50.806;11.586;2024-02-26T04:31:45;224.73;;;191.57;;
47866;SDS011;33628;50.806;11.586;2024-02-26T04:34:12;303.40;;;252.40;;
47866;SDS011;33628;50.806;11.586;2024-02-26T04:36:39;295.63;;;246.20;;
47866;SDS011;33628;50.806;11.586;2024-02-26T04:39:07;265.92;;;229.48;;
47866;SDS011;33628;50.806;11.586;2024-02-26T04:41:34;167.65;;;150.57;;
47866;SDS011;33628;50.806;11.586;2024-02-26T04:44:00;200.10;;;176.50;;
47866;SDS011;33628;50.806;11.586;2024-02-26T04:46:27;241.15;;;208.07;;
47866;SDS011;33628;50.806;11.586;2024-02-26T04:48:54;206.20;;;183.27;;
47866;SDS011;33628;50.806;11.586;2024-02-26T04:51:20;197.75;;;176.07;;
47866;SDS011;33628;50.806;11.586;2024-02-26T04:53:47;199.27;;;177.13;;
47866;SDS011;33628;50.806;11.586;2024-02-26T04:56:15;193.32;;;172.40;;
47866;SDS011;33628;50.806;11.586;2024-02-26T04:58:42;196.93;;;175.40;;
47866;SDS011;33628;50.806;11.586;2024-02-26T05:01:08;189.18;;;167.82;;
47866;SDS011;33628;50.806;11.586;2024-02-26T05:03:36;13.85;;;10.93;;
47866;SDS011;33628;50.806;11.586;2024-02-26T05:06:03;173.85;;;155.45;;
47866;SDS011;33628;50.806;11.586;2024-02-26T05:08:30;32.17;;;29.70;;
47866;SDS011;33628;50.806;11.586;2024-02-26T05:10:59;42.33;;;39.00;;
47866;SDS011;33628;50.806;11.586;2024-02-26T05:13:30;9.80;;;4.93;;
47866;SDS011;33628;50.806;11.586;2024-02-26T05:15:57;12.70;;;5.43;;
47866;SDS011;33628;50.806;11.586;2024-02-26T05:18:23;14.77;;;7.07;;
47866;SDS011;33628;50.806;11.586;2024-02-26T05:20:50;11.38;;;5.47;;
47866;SDS011;33628;50.806;11.586;2024-02-26T05:23:16;14.18;;;6.90;;
47866;SDS011;33628;50.806;11.586;2024-02-26T05:25:43;15.38;;;7.25;;
47866;SDS011;33628;50.806;11.586;2024-02-26T05:28:12;16.48;;;7.35;;
47866;SDS011;33628;50.806;11.586;2024-02-26T05:30:42;11.85;;;6.22;;
47866;SDS011;33628;50.806;11.586;2024-02-26T05:33:09;11.77;;;8.20;;
47866;SDS011;33628;50.806;11.586;2024-02-26T05:35:36;127.00;;;115.15;;
47866;SDS011;33628;50.806;11.586;2024-02-26T05:38:03;200.30;;;178.68;;
47866;SDS011;33628;50.806;11.586;2024-02-26T05:40:30;229.93;;;198.52;;
47866;SDS011;33628;50.806;11.586;2024-02-26T05:42:56;288.15;;;241.13;;
47866;SDS011;33628;50.806;11.586;2024-02-26T05:45:23;355.08;;;296.35;;
47866;SDS011;33628;50.806;11.586;2024-02-26T05:47:51;340.15;;;281.05;;
47866;SDS011;33628;50.806;11.586;2024-02-26T05:50:17;333.50;;;272.23;;
47866;SDS011;33628;50.806;11.586;2024-02-26T05:52:44;312.15;;;257.83;;
47866;SDS011;33628;50.806;11.586;2024-02-26T05:55:10;335.10;;;280.33;;
47866;SDS011;33628;50.806;11.586;2024-02-26T05:57:39;285.52;;;240.57;;
47866;SDS011;33628;50.806;11.586;2024-02-26T06:00:06;320.60;;;273.67;;
47866;SDS011;33628;50.806;11.586;2024-02-26T06:18:02;349.20;;;292.95;;
47866;SDS011;33628;50.806;11.586;2024-02-26T06:20:29;331.65;;;277.58;;
47866;SDS011;33628;50.806;11.586;2024-02-26T06:22:56;370.85;;;313.70;;
47866;SDS011;33628;50.806;11.586;2024-02-26T06:25:22;10.32;;;5.38;;
47866;SDS011;33628;50.806;11.586;2024-02-26T06:27:49;11.57;;;5.50;;
47866;SDS011;33628;50.806;11.586;2024-02-26T06:30:16;13.95;;;7.15;;
47866;SDS011;33628;50.806;11.586;2024-02-26T06:32:43;17.52;;;7.78;;
47866;SDS011;33628;50.806;11.586;2024-02-26T06:35:11;17.98;;;7.50;;
47866;SDS011;33628;50.806;11.586;2024-02-26T06:37:37;15.07;;;6.60;;
47866;SDS011;33628;50.806;11.586;2024-02-26T06:40:04;26.80;;;21.73;;
47866;SDS011;33628;50.806;11.586;2024-02-26T06:42:32;294.20;;;245.40;;
47866;SDS011;33628;50.806;11.586;2024-02-26T06:44:59;309.77;;;257.48;;
47866;SDS011;33628;50.806;11.586;2024-02-26T06:47:25;275.88;;;229.77;;
47866;SDS011;33628;50.806;11.586;2024-02-26T06:49:52;341.95;;;285.30;;
47866;SDS011;33628;50.806;11.586;2024-02-26T06:52:20;328.33;;;270.15;;
47866;SDS011;33628;50.806;11.586;2024-02-26T06:54:47;312.13;;;252.70;;
47866;SDS011;33628;50.806;11.586;2024-02-26T06:57:17;391.25;;;322.70;;
47866;SDS011;33628;50.806;11.586;2024-02-26T06:59:43;367.05;;;301.25;;
47866;SDS011;33628;50.806;11.586;2024-02-26T07:02:12;348.35;;;290.10;;
47866;SDS011;33628;50.806;11.586;2024-02-26T07:04:39;358.60;;;294.33;;
47866;SDS011;33628;50.806;11.586;2024-02-26T07:07:06;372.25;;;301.45;;
47866;SDS011;33628;50.806;11.586;2024-02-26T07:09:34;365.02;;;303.48;;
47866;SDS011;33628;50.806;11.586;2024-02-26T07:12:01;365.77;;;303.27;;
47866;SDS011;33628;50.806;11.586;2024-02-26T07:14:28;349.00;;;286.38;;
47866;SDS011;33628;50.806;11.586;2024-02-26T07:16:54;337.67;;;278.08;;
47866;SDS011;33628;50.806;11.586;2024-02-26T07:19:22;357.15;;;284.85;;
47866;SDS011;33628;50.806;11.586;2024-02-26T07:21:48;315.85;;;255.63;;
47866;SDS011;33628;50.806;11.586;2024-02-26T07:24:15;290.95;;;244.02;;
47866;SDS011;33628;50.806;11.586;2024-02-26T07:26:43;351.05;;;294.23;;
47866;SDS011;33628;50.806;11.586;2024-02-26T07:29:09;313.27;;;260.73;;
47866;SDS011;33628;50.806;11.586;2024-02-26T07:31:39;327.58;;;271.38;;
47866;SDS011;33628;50.806;11.586;2024-02-26T07:34:05;243.30;;;206.73;;
47866;SDS011;33628;50.806;11.586;2024-02-26T07:36:32;235.95;;;203.48;;
47866;SDS011;33628;50.806;11.586;2024-02-26T07:38:58;114.28;;;100.32;;
47866;SDS011;33628;50.806;11.586;2024-02-26T07:41:25;36.28;;;16.33;;
47866;SDS011;33628;50.806;11.586;2024-02-26T07:43:53;34.90;;;15.55;;
47866;SDS011;33628;50.806;11.586;2024-02-26T07:46:19;26.02;;;14.10;;
47866;SDS011;33628;50.806;11.586;2024-02-26T07:48:46;40.10;;;16.15;;
47866;SDS011;33628;50.806;11.586;2024-02-26T07:51:13;39.55;;;19.25;;
47866;SDS011;33628;50.806;11.586;2024-02-26T07:53:40;35.00;;;21.27;;
47866;SDS011;33628;50.806;11.586;2024-02-26T07:56:06;35.40;;;31.15;;
47866;SDS011;33628;50.806;11.586;2024-02-26T07:58:33;98.95;;;89.10;;
47866;SDS011;33628;50.806;11.586;2024-02-26T08:01:01;38.88;;;33.63;;
47866;SDS011;33628;50.806;11.586;2024-02-26T08:03:28;44.22;;;38.70;;
47866;SDS011;33628;50.806;11.586;2024-02-26T08:05:54;51.22;;;43.63;;
47866;SDS011;33628;50.806;11.586;2024-02-26T08:08:21;59.33;;;54.08;;
47866;SDS011;33628;50.806;11.586;2024-02-26T08:10:48;64.35;;;58.35;;
47866;SDS011;33628;50.806;11.586;2024-02-26T08:13:14;75.47;;;67.88;;
47866;SDS011;33628;50.806;11.586;2024-02-26T08:15:41;130.25;;;117.32;;
47866;SDS011;33628;50.806;11.586;2024-02-26T08:18:09;54.72;;;48.25;;
47866;SDS011;33628;50.806;11.586;2024-02-26T08:20:36;104.00;;;93.45;;
47866;SDS011;33628;50.806;11.586;2024-02-26T08:23:03;198.90;;;173.57;;
47866;SDS011;33628;50.806;11.586;2024-02-26T08:25:30;293.92;;;239.30;;
47866;SDS011;33628;50.806;11.586;2024-02-26T08:27:56;257.48;;;210.20;;
47866;SDS011;33628;50.806;11.586;2024-02-26T08:30:23;255.35;;;215.00;;
47866;SDS011;33628;50.806;11.586;2024-02-26T08:32:50;250.02;;;207.90;;
47866;SDS011;33628;50.806;11.586;2024-02-26T08:35:18;244.27;;;201.02;;
47866;SDS011;33628;50.806;11.586;2024-02-26T08:37:45;212.02;;;179.85;;
47866;SDS011;33628;50.806;11.586;2024-02-26T08:40:12;148.70;;;133.38;;
47866;SDS011;33628;50.806;11.586;2024-02-26T08:42:38;214.57;;;181.77;;
47866;SDS011;33628;50.806;11.586;2024-02-26T08:45:05;189.95;;;165.43;;
47866;SDS011;33628;50.806;11.586;2024-02-26T08:47:33;229.25;;;193.50;;
47866;SDS011;33628;50.806;11.586;2024-02-26T08:50:00;225.60;;;190.18;;
47866;SDS011;33628;50.806;11.586;2024-02-26T08:52:28;438.23;;;387.27;;
47866;SDS011;33628;50.806;11.586;2024-02-26T08:54:54;356.48;;;292.58;;
47866;SDS011;33628;50.806;11.586;2024-02-26T08:57:21;401.75;;;329.27;;
47866;SDS011;33628;50.806;11.586;2024-02-26T08:59:48;531.80;;;474.20;;
47866;SDS011;33628;50.806;11.586;2024-02-26T09:02:14;740.83;;;666.88;;
47866;SDS011;33628;50.806;11.586;2024-02-26T09:04:41;555.17;;;496.23;;
47866;SDS011;33628;50.806;11.586;2024-02-26T09:07:07;540.22;;;481.95;;
47866;SDS011;33628;50.806;11.586;2024-02-26T09:09:35;372.23;;;297.48;;
47866;SDS011;33628;50.806;11.586;2024-02-26T09:12:02;504.13;;;448.25;;
47866;SDS011;33628;50.806;11.586;2024-02-26T09:14:29;487.73;;;432.85;;
47866;SDS011;33628;50.806;11.586;2024-02-26T09:16:56;592.17;;;529.28;;
47866;SDS011;33628;50.806;11.586;2024-02-26T09:19:23;652.75;;;584.67;;
47866;SDS011;33628;50.806;11.586;2024-02-26T09:21:51;1083.20;;;979.78;;
47866;SDS011;33628;50.806;11.586;2024-02-26T09:24:19;748.08;;;671.15;;
47866;SDS011;33628;50.806;11.586;2024-02-26T09:26:47;625.90;;;558.78;;
47866;SDS011;33628;50.806;11.586;2024-02-26T09:29:14;818.80;;;736.45;;
47866;SDS011;33628;50.806;11.586;2024-02-26T09:31:40;806.67;;;724.40;;
47866;SDS011;33628;50.806;11.586;2024-02-26T09:34:07;819.90;;;736.72;;
47866;SDS011;33628;50.806;11.586;2024-02-26T09:36:34;719.63;;;645.00;;
47866;SDS011;33628;50.806;11.586;2024-02-26T09:39:00;1128.53;;;999.53;;
47866;SDS011;33628;50.806;11.586;2024-02-26T09:41:28;984.17;;;887.90;;
47866;SDS011;33628;50.806;11.586;2024-02-26T09:43:57;902.08;;;813.47;;
47866;SDS011;33628;50.806;11.586;2024-02-26T09:46:25;1258.93;;;999.90;;
47866;SDS011;33628;50.806;11.586;2024-02-26T09:48:51;1224.72;;;999.90;;
47866;SDS011;33628;50.806;11.586;2024-02-26T09:51:18;937.03;;;846.33;;
47866;SDS011;33628;50.806;11.586;2024-02-26T09:53:46;1233.97;;;999.90;;
47866;SDS011;33628;50.806;11.586;2024-02-26T09:56:13;1150.68;;;999.90;;
47866;SDS011;33628;50.806;11.586;2024-02-26T09:58:40;1065.13;;;963.75;;
47866;SDS011;33628;50.806;11.586;2024-02-26T10:01:11;904.78;;;814.80;;
47866;SDS011;33628;50.806;11.586;2024-02-26T10:03:40;889.08;;;800.10;;
47866;SDS011;33628;50.806;11.586;2024-02-26T10:06:13;867.88;;;781.03;;
47866;SDS011;33628;50.806;11.586;2024-02-26T10:08:40;998.75;;;900.13;;
47866;SDS011;33628;50.806;11.586;2024-02-26T10:11:07;818.75;;;735.58;;
47866;SDS011;33628;50.806;11.586;2024-02-26T10:13:36;741.90;;;664.78;;
47866;SDS011;33628;50.806;11.586;2024-02-26T10:16:03;838.85;;;754.00;;
47866;SDS011;33628;50.806;11.586;2024-02-26T10:21:24;646.60;;;577.73;;
47866;SDS011;33628;50.806;11.586;2024-02-26T10:23:50;643.83;;;574.60;;
47866;SDS011;33628;50.806;11.586;2024-02-26T10:26:17;1311.35;;;999.90;;
47866;SDS011;33628;50.806;11.586;2024-02-26T10:28:44;1321.85;;;999.90;;
47866;SDS011;33628;50.806;11.586;2024-02-26T10:31:13;1358.10;;;999.90;;
47866;SDS011;33628;50.806;11.586;2024-02-26T10:33:41;1141.93;;;999.90;;
47866;SDS011;33628;50.806;11.586;2024-02-26T10:36:09;1414.60;;;999.90;;
47866;SDS011;33628;50.806;11.586;2024-02-26T10:38:37;1378.97;;;999.90;;
47866;SDS011;33628;50.806;11.586;2024-02-26T10:41:04;1353.00;;;999.90;;
47866;SDS011;33628;50.806;11.586;2024-02-26T10:43:31;543.47;;;440.20;;
47866;SDS011;33628;50.806;11.586;2024-02-26T10:45:57;583.42;;;493.75;;
47866;SDS011;33628;50.806;11.586;2024-02-26T10:48:24;592.38;;;502.45;;
47866;SDS011;33628;50.806;11.586;2024-02-26T10:50:51;500.08;;;398.25;;
47866;SDS011;33628;50.806;11.586;2024-02-26T10:53:20;486.38;;;382.10;;
47866;SDS011;33628;50.806;11.586;2024-02-26T10:55:51;421.70;;;307.08;;
47866;SDS011;33628;50.806;11.586;2024-02-26T10:58:20;455.77;;;348.60;;
47866;SDS011;33628;50.806;11.586;2024-02-26T11:00:49;443.70;;;331.27;;
47866;SDS011;33628;50.806;11.586;2024-02-26T11:03:16;435.23;;;325.00;;
47866;SDS011;33628;50.806;11.586;2024-02-26T11:05:46;543.30;;;447.55;;
47866;SDS011;33628;50.806;11.586;2024-02-26T11:08:14;500.77;;;403.63;;
47866;SDS011;33628;50.806;11.586;2024-02-26T11:10:42;664.78;;;579.20;;
47866;SDS011;33628;50.806;11.586;2024-02-26T11:13:10;678.65;;;594.88;;
47866;SDS011;33628;50.806;11.586;2024-02-26T11:15:38;694.75;;;612.80;;
47866;SDS011;33628;50.806;11.586;2024-02-26T11:18:06;1265.85;;;999.90;;
47866;SDS011;33628;50.806;11.586;2024-02-26T11:20:33;1196.72;;;999.90;;
47866;SDS011;33628;50.806;11.586;2024-02-26T11:23:01;1143.20;;;999.90;;
47866;SDS011;33628;50.806;11.586;2024-02-26T11:25:27;1229.47;;;999.90;;
47866;SDS011;33628;50.806;11.586;2024-02-26T11:27:54;1225.32;;;999.90;;
47866;SDS011;33628;50.806;11.586;2024-02-26T11:30:25;1324.28;;;999.90;;
47866;SDS011;33628;50.806;11.586;2024-02-26T11:32:52;1322.75;;;999.90;;
47866;SDS011;33628;50.806;11.586;2024-02-26T11:35:19;1312.63;;;999.90;;
47866;SDS011;33628;50.806;11.586;2024-02-26T11:37:55;1310.15;;;999.90;;
47866;SDS011;33628;50.806;11.586;2024-02-26T11:40:23;1277.13;;;999.90;;
47866;SDS011;33628;50.806;11.586;2024-02-26T11:42:51;1275.15;;;999.90;;
47866;SDS011;33628;50.806;11.586;2024-02-26T11:48:21;1004.40;;;902.15;;
47866;SDS011;33628;50.806;11.586;2024-02-26T11:50:49;937.28;;;840.08;;
47866;SDS011;33628;50.806;11.586;2024-02-26T11:53:20;888.30;;;794.88;;
47866;SDS011;33628;50.806;11.586;2024-02-26T11:55:48;862.58;;;771.47;;
47866;SDS011;33628;50.806;11.586;2024-02-26T11:59:03;818.03;;;730.88;;
47866;SDS011;33628;50.806;11.586;2024-02-26T12:01:45;938.85;;;841.17;;
47866;SDS011;33628;50.806;11.586;2024-02-26T12:04:14;781.70;;;698.50;;
47866;SDS011;33628;50.806;11.586;2024-02-26T12:06:47;738.83;;;658.97;;
47866;SDS011;33628;50.806;11.586;2024-02-26T12:09:35;583.25;;;512.95;;
47866;SDS011;33628;50.806;11.586;2024-02-26T12:12:05;635.30;;;559.10;;
47866;SDS011;33628;50.806;11.586;2024-02-26T12:14:33;799.08;;;712.20;;
47866;SDS011;33628;50.806;11.586;2024-02-26T12:17:02;730.58;;;650.15;;
47866;SDS011;33628;50.806;11.586;2024-02-26T12:19:33;753.78;;;671.58;;
47866;SDS011;33628;50.806;11.586;2024-02-26T12:22:00;814.65;;;725.40;;
47866;SDS011;33628;50.806;11.586;2024-02-26T12:24:27;823.20;;;733.25;;
47866;SDS011;33628;50.806;11.586;2024-02-26T12:26:54;782.75;;;696.67;;
47866;SDS011;33628;50.806;11.586;2024-02-26T12:29:21;951.92;;;850.65;;
47866;SDS011;33628;50.806;11.586;2024-02-26T12:31:48;842.72;;;751.00;;
47866;SDS011;33628;50.806;11.586;2024-02-26T12:34:17;803.75;;;716.10;;
47866;SDS011;33628;50.806;11.586;2024-02-26T12:36:44;775.83;;;690.60;;
47866;SDS011;33628;50.806;11.586;2024-02-26T12:39:10;775.45;;;690.20;;
47866;SDS011;33628;50.806;11.586;2024-02-26T12:41:37;856.83;;;763.65;;
47866;SDS011;33628;50.806;11.586;2024-02-26T12:44:05;839.50;;;747.72;;
47866;SDS011;33628;50.806;11.586;2024-02-26T12:46:32;739.80;;;654.42;;
47866;SDS011;33628;50.806;11.586;2024-02-26T12:48:59;753.08;;;665.88;;
47866;SDS011;33628;50.806;11.586;2024-02-26T12:51:27;793.88;;;705.47;;
47866;SDS011;33628;50.806;11.586;2024-02-26T12:53:54;779.35;;;689.47;;
47866;SDS011;33628;50.806;11.586;2024-02-26T12:56:21;752.50;;;668.85;;
47866;SDS011;33628;50.806;11.586;2024-02-26T12:58:49;781.00;;;694.97;;
47866;SDS011;33628;50.806;11.586;2024-02-26T13:01:17;804.65;;;715.60;;
47866;SDS011;33628;50.806;11.586;2024-02-26T13:03:45;762.90;;;672.53;;
47866;SDS011;33628;50.806;11.586;2024-02-26T13:06:11;684.67;;;594.42;;
47866;SDS011;33628;50.806;11.586;2024-02-26T13:08:39;694.72;;;606.63;;
47866;SDS011;33628;50.806;11.586;2024-02-26T13:11:06;731.22;;;645.22;;
47866;SDS011;33628;50.806;11.586;2024-02-26T13:13:33;564.90;;;477.17;;
47866;SDS011;33628;50.806;11.586;2024-02-26T13:16:01;674.65;;;587.58;;
47866;SDS011;33628;50.806;11.586;2024-02-26T13:18:30;739.88;;;652.35;;
47866;SDS011;33628;50.806;11.586;2024-02-26T13:21:07;708.28;;;616.00;;
47866;SDS011;33628;50.806;11.586;2024-02-26T13:23:35;683.58;;;597.75;;
47866;SDS011;33628;50.806;11.586;2024-02-26T13:26:03;720.33;;;628.97;;
47866;SDS011;33628;50.806;11.586;2024-02-26T13:28:30;387.73;;;276.40;;
47866;SDS011;33628;50.806;11.586;2024-02-26T13:30:57;242.75;;;163.52;;
47866;SDS011;33628;50.806;11.586;2024-02-26T13:33:24;482.60;;;370.45;;
47866;SDS011;33628;50.806;11.586;2024-02-26T13:35:51;529.45;;;421.98;;
47866;SDS011;33628;50.806;11.586;2024-02-26T13:38:18;447.10;;;350.05;;
47866;SDS011;33628;50.806;11.586;2024-02-26T13:40:45;598.83;;;502.75;;
47866;SDS011;33628;50.806;11.586;2024-02-26T13:43:13;582.60;;;484.73;;
47866;SDS011;33628;50.806;11.586;2024-02-26T13:45:39;511.92;;;403.45;;
47866;SDS011;33628;50.806;11.586;2024-02-26T13:48:06;483.08;;;379.35;;
47866;SDS011;33628;50.806;11.586;2024-02-26T13:50:35;481.02;;;377.05;;
47866;SDS011;33628;50.806;11.586;2024-02-26T13:53:02;507.83;;;405.83;;
47866;SDS011;33628;50.806;11.586;2024-02-26T13:55:30;495.13;;;393.10;;
47866;SDS011;33628;50.806;11.586;2024-02-26T13:57:57;546.65;;;445.98;;
47866;SDS011;33628;50.806;11.586;2024-02-26T14:00:28;477.58;;;375.23;;
47866;SDS011;33628;50.806;11.586;2024-02-26T14:02:57;511.35;;;410.67;;
47866;SDS011;33628;50.806;11.586;2024-02-26T14:05:24;596.10;;;499.45;;
47866;SDS011;33628;50.806;11.586;2024-02-26T14:07:52;591.33;;;493.27;;
47866;SDS011;33628;50.806;11.586;2024-02-26T14:10:18;610.53;;;514.28;;
47866;SDS011;33628;50.806;11.586;2024-02-26T14:12:45;23.02;;;12.55;;
47866;SDS011;33628;50.806;11.586;2024-02-26T14:15:12;24.88;;;15.38;;
47866;SDS011;33628;50.806;11.586;2024-02-26T14:17:40;24.75;;;14.95;;